METAR Data
IDs: Format: Raw Decoded Include TAF

Data at: 1509 UTC 22 Apr 2021

KFPR 221453Z 36009G17KT 10SM CLR 24/16 A3009 RMK AO2 SLP188 T02440161 53009
KFPR 221353Z 01009KT 350V050 10SM CLR 24/16 A3007 RMK AO2 SLP183 T02390156
KFPR 221253Z VRB04KT 10SM CLR 22/16 A3007 RMK AO2 SLP181 T02220161
KFPR 221153Z 33003KT 10SM CLR 18/15 A3006 RMK AO2 SLP180 T01830150 10189 20150 51021
KFPR 221053Z 32004KT 10SM CLR 17/14 A3005 RMK AO2 SLP174 T01720144
KFPR 220953Z AUTO 00000KT 10SM CLR 16/14 A3002 RMK AO2 SLP165 T01610139
KFPR 220853Z AUTO 00000KT 10SM CLR 15/12 A3000 RMK AO2 SLP158 T01500122 55004
KFPR 220753Z AUTO 28003KT 10SM CLR 15/12 A3000 RMK AO2 SLP157 T01500117
KFPR 220653Z AUTO 00000KT 10SM CLR 17/12 A3000 RMK AO2 SLP159 T01670117
KFPR 220553Z AUTO 33003KT 10SM CLR 19/12 A3001 RMK AO2 SLP163 T01890117 10261 20189 51006
KFPR 220453Z AUTO 30005KT 10SM CLR 20/13 A3001 RMK AO2 SLP160 T02000128 402890194
KFPR 220353Z AUTO 27003KT 10SM CLR 19/16 A3001 RMK AO2 SLP161 T01940161
KFPR 220253Z AUTO 00000KT 10SM CLR 19/17 A3000 RMK AO2 SLP157 T01940167 51011
KFPR 220153Z AUTO 00000KT 10SM CLR 22/17 A2999 RMK AO2 SLP155 T02170167
KFPR 220053Z 22003KT 10SM CLR 22/17 A2998 RMK AO2 SLP153 T02220167
KFPR 212353Z 24003KT 10SM BKN070 26/16 A2996 RMK AO2 SLP146 T02610156 10289 20261 53006
KFPR 212253Z 24005KT 10SM OVC070 27/17 A2996 RMK AO2 SLP143 T02720167
KFPR 212153Z 24005KT 10SM BKN070 28/17 A2995 RMK AO2 SLP140 T02830167
KFPR 212053Z 00000KT 10SM CLR 28/16 A2995 RMK AO2 SLP140 T02780156 56015
KFPR 211953Z 28008KT 10SM SCT065 27/18 A2995 RMK AO2 SLP143 T02720178
KFPR 211853Z 28007KT 10SM BKN070 28/18 A2997 RMK AO2 SLP149 T02780183
KFPR 211753Z 29005KT 10SM FEW033 BKN048 OVC060 28/19 A2999 RMK AO2 SLP155 T02780189 10289 20222 58004
KFPR 211653Z VRB04KT 10SM FEW040 28/20 A2999 RMK AO2 SLP155 T02830200
KFPR 211553Z 32006KT 10SM FEW024 OVC047 27/20 A3001 RMK AO2 SLP162 T02670200
KFPR 211453Z 26003KT 10SM FEW029 SCT038 27/21 A3000 RMK AO2 SLP159 T02670211 53008
KFPR 211443Z 29005KT 10SM FEW017 SCT029 BKN039 26/21 A2999 RMK AO2 T02560206
KFPR 211415Z 28005KT 10SM SCT015 BKN022 26/21 A2999 RMK AO2 T02560211
KFPR 211353Z 26006KT 10SM BKN010 25/21 A2999 RMK AO2 SLP155 T02500211
KFPR 211322Z 23008KT 10SM BKN010 25/22 A2999 RMK AO2 T02500217
KFPR 211253Z 28007KT 10SM SCT060 BKN120 24/21 A2998 RMK AO2 SLP151 T02390211
KFPR 211153Z 28005KT 10SM FEW037 SCT060 OVC080 22/21 A2998 RMK AO2 RAB07E34 SLP150 P0000 60000 70056 T02220206 10222 20217 51011
KFPR 211053Z 27004KT 10SM OVC033 22/20 A2997 RMK AO2 SLP148 T02220200
KFPR 210953Z AUTO 27004KT 10SM FEW033 SCT060 OVC080 22/20 A2997 RMK AO2 SLP146 T02170200
KFPR 210853Z AUTO 23004KT 10SM BKN095 22/19 A2995 RMK AO2 SLP139 T02170194 55004
KFPR 210753Z AUTO 26004KT 10SM CLR 22/19 A2994 RMK AO2 SLP139 T02170194
KFPR 210653Z AUTO 24004KT 10SM CLR 22/19 A2995 RMK AO2 SLP139 T02170194
KFPR 210553Z AUTO 21003KT 10SM FEW100 22/20 A2996 RMK AO2 SLP143 T02170200 10233 20206 58003
KFPR 210453Z AUTO 00000KT 10SM CLR 21/20 A2997 RMK AO2 SLP147 T02110200 402940211
KFPR 210353Z AUTO 34003KT 8SM FEW044 21/19 A2997 RMK AO2 SLP149 T02110194